sensor_id;sensor_type;location;lat;lon;timestamp;P1;durP1;ratioP1;P2;durP2;ratioP2
51828;SDS011;37881;48.024;8.774;2024-01-27T00:02:23;13.82;;;6.20;;
51828;SDS011;37881;48.024;8.774;2024-01-27T00:04:50;20.48;;;8.02;;
51828;SDS011;37881;48.024;8.774;2024-01-27T00:07:17;16.08;;;7.05;;
51828;SDS011;37881;48.024;8.774;2024-01-27T00:09:44;16.98;;;7.25;;
51828;SDS011;37881;48.024;8.774;2024-01-27T00:12:11;18.80;;;9.13;;
51828;SDS011;37881;48.024;8.774;2024-01-27T00:14:38;14.00;;;5.85;;
51828;SDS011;37881;48.024;8.774;2024-01-27T00:17:05;15.07;;;5.75;;
51828;SDS011;37881;48.024;8.774;2024-01-27T00:19:35;12.48;;;4.80;;
51828;SDS011;37881;48.024;8.774;2024-01-27T00:22:06;17.05;;;7.38;;
51828;SDS011;37881;48.024;8.774;2024-01-27T00:24:33;11.07;;;4.33;;
51828;SDS011;37881;48.024;8.774;2024-01-27T00:27:00;9.95;;;4.70;;
51828;SDS011;37881;48.024;8.774;2024-01-27T00:29:27;8.95;;;4.25;;
51828;SDS011;37881;48.024;8.774;2024-01-27T00:31:54;13.57;;;6.13;;
51828;SDS011;37881;48.024;8.774;2024-01-27T00:34:21;30.63;;;11.73;;
51828;SDS011;37881;48.024;8.774;2024-01-27T00:36:48;26.00;;;11.23;;
51828;SDS011;37881;48.024;8.774;2024-01-27T00:39:17;35.78;;;14.77;;
51828;SDS011;37881;48.024;8.774;2024-01-27T00:41:45;33.38;;;13.68;;
51828;SDS011;37881;48.024;8.774;2024-01-27T00:44:12;29.27;;;11.35;;
51828;SDS011;37881;48.024;8.774;2024-01-27T00:46:38;22.52;;;10.32;;
51828;SDS011;37881;48.024;8.774;2024-01-27T00:49:06;12.53;;;5.33;;
51828;SDS011;37881;48.024;8.774;2024-01-27T00:51:33;10.20;;;4.55;;
51828;SDS011;37881;48.024;8.774;2024-01-27T00:54:00;10.05;;;4.80;;
51828;SDS011;37881;48.024;8.774;2024-01-27T00:56:26;9.35;;;4.60;;
51828;SDS011;37881;48.024;8.774;2024-01-27T00:58:53;9.18;;;4.78;;
51828;SDS011;37881;48.024;8.774;2024-01-27T01:01:20;8.40;;;4.17;;
51828;SDS011;37881;48.024;8.774;2024-01-27T01:03:47;9.00;;;4.55;;
51828;SDS011;37881;48.024;8.774;2024-01-27T01:06:14;8.75;;;4.68;;
51828;SDS011;37881;48.024;8.774;2024-01-27T01:08:41;7.10;;;4.07;;
51828;SDS011;37881;48.024;8.774;2024-01-27T01:11:08;43.38;;;16.13;;
51828;SDS011;37881;48.024;8.774;2024-01-27T01:13:35;36.93;;;14.87;;
51828;SDS011;37881;48.024;8.774;2024-01-27T01:16:01;24.00;;;9.98;;
51828;SDS011;37881;48.024;8.774;2024-01-27T01:18:29;22.30;;;10.65;;
51828;SDS011;37881;48.024;8.774;2024-01-27T01:20:57;22.92;;;9.63;;
51828;SDS011;37881;48.024;8.774;2024-01-27T01:23:23;18.13;;;7.32;;
51828;SDS011;37881;48.024;8.774;2024-01-27T01:25:50;15.63;;;6.80;;
51828;SDS011;37881;48.024;8.774;2024-01-27T01:28:17;14.65;;;6.30;;
51828;SDS011;37881;48.024;8.774;2024-01-27T01:30:44;10.27;;;5.57;;
51828;SDS011;37881;48.024;8.774;2024-01-27T01:33:11;9.68;;;4.65;;
51828;SDS011;37881;48.024;8.774;2024-01-27T01:35:38;12.55;;;5.40;;
51828;SDS011;37881;48.024;8.774;2024-01-27T01:38:04;21.03;;;8.47;;
51828;SDS011;37881;48.024;8.774;2024-01-27T01:40:31;15.48;;;7.47;;
51828;SDS011;37881;48.024;8.774;2024-01-27T01:42:58;17.65;;;8.40;;
51828;SDS011;37881;48.024;8.774;2024-01-27T01:45:25;13.02;;;6.18;;
51828;SDS011;37881;48.024;8.774;2024-01-27T01:47:52;14.57;;;6.78;;
51828;SDS011;37881;48.024;8.774;2024-01-27T01:50:20;47.10;;;19.30;;
51828;SDS011;37881;48.024;8.774;2024-01-27T01:52:50;17.10;;;7.80;;
51828;SDS011;37881;48.024;8.774;2024-01-27T01:55:19;15.15;;;7.10;;
51828;SDS011;37881;48.024;8.774;2024-01-27T01:57:46;14.25;;;6.25;;
51828;SDS011;37881;48.024;8.774;2024-01-27T02:00:13;12.38;;;5.53;;
51828;SDS011;37881;48.024;8.774;2024-01-27T02:02:42;12.13;;;5.43;;
51828;SDS011;37881;48.024;8.774;2024-01-27T02:05:14;10.88;;;5.25;;
51828;SDS011;37881;48.024;8.774;2024-01-27T02:07:41;15.10;;;7.57;;
51828;SDS011;37881;48.024;8.774;2024-01-27T02:10:12;18.48;;;8.48;;
51828;SDS011;37881;48.024;8.774;2024-01-27T02:12:40;16.50;;;7.95;;
51828;SDS011;37881;48.024;8.774;2024-01-27T02:15:09;14.63;;;6.27;;
51828;SDS011;37881;48.024;8.774;2024-01-27T02:17:38;11.10;;;5.47;;
51828;SDS011;37881;48.024;8.774;2024-01-27T02:20:06;12.60;;;6.50;;
51828;SDS011;37881;48.024;8.774;2024-01-27T02:22:34;11.48;;;5.50;;
51828;SDS011;37881;48.024;8.774;2024-01-27T02:25:04;12.05;;;6.07;;
51828;SDS011;37881;48.024;8.774;2024-01-27T02:27:31;12.13;;;5.40;;
51828;SDS011;37881;48.024;8.774;2024-01-27T02:29:57;35.45;;;14.90;;
51828;SDS011;37881;48.024;8.774;2024-01-27T02:32:24;22.73;;;9.32;;
51828;SDS011;37881;48.024;8.774;2024-01-27T02:34:51;18.80;;;8.10;;
51828;SDS011;37881;48.024;8.774;2024-01-27T02:37:18;17.42;;;8.10;;
51828;SDS011;37881;48.024;8.774;2024-01-27T02:39:45;18.60;;;7.87;;
51828;SDS011;37881;48.024;8.774;2024-01-27T02:42:12;17.17;;;7.80;;
51828;SDS011;37881;48.024;8.774;2024-01-27T02:44:39;13.93;;;6.93;;
51828;SDS011;37881;48.024;8.774;2024-01-27T02:47:06;12.93;;;6.47;;
51828;SDS011;37881;48.024;8.774;2024-01-27T02:49:32;16.60;;;7.05;;
51828;SDS011;37881;48.024;8.774;2024-01-27T02:51:59;15.30;;;5.97;;
51828;SDS011;37881;48.024;8.774;2024-01-27T02:54:26;16.05;;;6.20;;
51828;SDS011;37881;48.024;8.774;2024-01-27T02:56:54;13.30;;;6.28;;
51828;SDS011;37881;48.024;8.774;2024-01-27T02:59:20;18.67;;;7.40;;
51828;SDS011;37881;48.024;8.774;2024-01-27T03:01:47;15.93;;;7.05;;
51828;SDS011;37881;48.024;8.774;2024-01-27T03:04:14;16.63;;;6.83;;
51828;SDS011;37881;48.024;8.774;2024-01-27T03:06:41;14.77;;;7.00;;
51828;SDS011;37881;48.024;8.774;2024-01-27T03:09:08;15.43;;;6.43;;
51828;SDS011;37881;48.024;8.774;2024-01-27T03:11:34;13.88;;;7.25;;
51828;SDS011;37881;48.024;8.774;2024-01-27T03:14:01;17.98;;;7.75;;
51828;SDS011;37881;48.024;8.774;2024-01-27T03:16:28;15.10;;;7.50;;
51828;SDS011;37881;48.024;8.774;2024-01-27T03:18:55;17.02;;;8.45;;
51828;SDS011;37881;48.024;8.774;2024-01-27T03:21:22;17.65;;;8.02;;
51828;SDS011;37881;48.024;8.774;2024-01-27T03:23:48;13.68;;;7.28;;
51828;SDS011;37881;48.024;8.774;2024-01-27T03:26:15;14.93;;;6.70;;
51828;SDS011;37881;48.024;8.774;2024-01-27T03:28:42;16.97;;;5.97;;
51828;SDS011;37881;48.024;8.774;2024-01-27T03:31:08;13.60;;;6.15;;
51828;SDS011;37881;48.024;8.774;2024-01-27T03:33:35;16.48;;;6.50;;
51828;SDS011;37881;48.024;8.774;2024-01-27T03:36:02;16.15;;;6.45;;
51828;SDS011;37881;48.024;8.774;2024-01-27T03:38:29;45.53;;;16.27;;
51828;SDS011;37881;48.024;8.774;2024-01-27T03:40:56;98.80;;;35.03;;
51828;SDS011;37881;48.024;8.774;2024-01-27T03:43:23;110.70;;;38.70;;
51828;SDS011;37881;48.024;8.774;2024-01-27T03:45:49;53.35;;;19.67;;
51828;SDS011;37881;48.024;8.774;2024-01-27T03:48:16;38.47;;;15.40;;
51828;SDS011;37881;48.024;8.774;2024-01-27T03:50:43;25.17;;;10.65;;
51828;SDS011;37881;48.024;8.774;2024-01-27T03:53:10;14.33;;;6.40;;
51828;SDS011;37881;48.024;8.774;2024-01-27T03:55:36;15.98;;;7.05;;
51828;SDS011;37881;48.024;8.774;2024-01-27T03:58:03;16.30;;;7.03;;
51828;SDS011;37881;48.024;8.774;2024-01-27T04:00:30;15.48;;;6.70;;
51828;SDS011;37881;48.024;8.774;2024-01-27T04:03:02;14.60;;;7.10;;
51828;SDS011;37881;48.024;8.774;2024-01-27T04:05:29;15.33;;;6.10;;
51828;SDS011;37881;48.024;8.774;2024-01-27T04:07:56;16.15;;;6.55;;
51828;SDS011;37881;48.024;8.774;2024-01-27T04:10:23;15.13;;;6.40;;
51828;SDS011;37881;48.024;8.774;2024-01-27T04:12:50;15.27;;;6.55;;
51828;SDS011;37881;48.024;8.774;2024-01-27T04:15:17;13.63;;;6.65;;
51828;SDS011;37881;48.024;8.774;2024-01-27T04:17:43;13.37;;;5.60;;
51828;SDS011;37881;48.024;8.774;2024-01-27T04:20:10;14.95;;;6.95;;
51828;SDS011;37881;48.024;8.774;2024-01-27T04:22:38;19.85;;;9.02;;
51828;SDS011;37881;48.024;8.774;2024-01-27T04:25:05;14.10;;;6.80;;
51828;SDS011;37881;48.024;8.774;2024-01-27T04:27:32;14.00;;;6.75;;
51828;SDS011;37881;48.024;8.774;2024-01-27T04:30:04;16.63;;;6.93;;
51828;SDS011;37881;48.024;8.774;2024-01-27T04:32:32;17.05;;;7.43;;
51828;SDS011;37881;48.024;8.774;2024-01-27T04:34:59;17.30;;;8.10;;
51828;SDS011;37881;48.024;8.774;2024-01-27T04:37:26;27.70;;;11.15;;
51828;SDS011;37881;48.024;8.774;2024-01-27T04:39:53;42.95;;;17.48;;
51828;SDS011;37881;48.024;8.774;2024-01-27T04:42:19;25.13;;;11.17;;
51828;SDS011;37881;48.024;8.774;2024-01-27T04:44:46;26.73;;;10.30;;
51828;SDS011;37881;48.024;8.774;2024-01-27T04:47:13;34.72;;;14.65;;
51828;SDS011;37881;48.024;8.774;2024-01-27T04:49:40;24.50;;;10.35;;
51828;SDS011;37881;48.024;8.774;2024-01-27T04:52:07;24.90;;;10.30;;
51828;SDS011;37881;48.024;8.774;2024-01-27T04:54:33;24.63;;;7.70;;
51828;SDS011;37881;48.024;8.774;2024-01-27T04:57:00;31.83;;;6.90;;
51828;SDS011;37881;48.024;8.774;2024-01-27T04:59:27;20.75;;;7.28;;
51828;SDS011;37881;48.024;8.774;2024-01-27T05:01:54;18.95;;;6.57;;
51828;SDS011;37881;48.024;8.774;2024-01-27T05:04:20;21.38;;;7.20;;
51828;SDS011;37881;48.024;8.774;2024-01-27T05:06:47;22.53;;;7.70;;
51828;SDS011;37881;48.024;8.774;2024-01-27T05:09:15;24.65;;;8.68;;
51828;SDS011;37881;48.024;8.774;2024-01-27T05:11:43;22.48;;;8.48;;
51828;SDS011;37881;48.024;8.774;2024-01-27T05:14:12;22.85;;;7.57;;
51828;SDS011;37881;48.024;8.774;2024-01-27T05:16:38;21.20;;;8.13;;
51828;SDS011;37881;48.024;8.774;2024-01-27T05:19:05;25.47;;;7.30;;
51828;SDS011;37881;48.024;8.774;2024-01-27T05:21:32;24.70;;;7.10;;
51828;SDS011;37881;48.024;8.774;2024-01-27T05:23:59;41.15;;;8.23;;
51828;SDS011;37881;48.024;8.774;2024-01-27T05:26:25;28.33;;;7.85;;
51828;SDS011;37881;48.024;8.774;2024-01-27T05:28:52;22.63;;;7.50;;
51828;SDS011;37881;48.024;8.774;2024-01-27T05:31:19;29.73;;;8.90;;
51828;SDS011;37881;48.024;8.774;2024-01-27T05:33:46;23.60;;;7.55;;
51828;SDS011;37881;48.024;8.774;2024-01-27T05:36:13;25.38;;;9.38;;
51828;SDS011;37881;48.024;8.774;2024-01-27T05:38:39;30.33;;;10.27;;
51828;SDS011;37881;48.024;8.774;2024-01-27T05:41:06;36.28;;;13.38;;
51828;SDS011;37881;48.024;8.774;2024-01-27T05:43:33;47.87;;;14.47;;
51828;SDS011;37881;48.024;8.774;2024-01-27T05:46:00;36.92;;;12.32;;
51828;SDS011;37881;48.024;8.774;2024-01-27T05:48:26;29.42;;;10.63;;
51828;SDS011;37881;48.024;8.774;2024-01-27T05:51:00;33.90;;;10.32;;
51828;SDS011;37881;48.024;8.774;2024-01-27T05:53:27;33.88;;;11.38;;
51828;SDS011;37881;48.024;8.774;2024-01-27T05:55:55;31.17;;;9.90;;
51828;SDS011;37881;48.024;8.774;2024-01-27T05:58:23;76.85;;;9.93;;
51828;SDS011;37881;48.024;8.774;2024-01-27T06:00:50;49.88;;;8.63;;
51828;SDS011;37881;48.024;8.774;2024-01-27T06:03:17;54.20;;;7.43;;
51828;SDS011;37881;48.024;8.774;2024-01-27T06:05:44;54.28;;;7.40;;
51828;SDS011;37881;48.024;8.774;2024-01-27T06:08:11;55.40;;;7.20;;
51828;SDS011;37881;48.024;8.774;2024-01-27T06:10:38;50.20;;;7.00;;
51828;SDS011;37881;48.024;8.774;2024-01-27T06:13:04;67.90;;;8.00;;
51828;SDS011;37881;48.024;8.774;2024-01-27T06:15:31;38.05;;;8.10;;
51828;SDS011;37881;48.024;8.774;2024-01-27T06:17:59;47.38;;;7.22;;
51828;SDS011;37881;48.024;8.774;2024-01-27T06:20:26;55.03;;;7.67;;
51828;SDS011;37881;48.024;8.774;2024-01-27T06:22:52;31.40;;;7.05;;
51828;SDS011;37881;48.024;8.774;2024-01-27T06:25:20;61.85;;;6.60;;
51828;SDS011;37881;48.024;8.774;2024-01-27T06:27:47;131.25;;;8.65;;
51828;SDS011;37881;48.024;8.774;2024-01-27T06:30:15;32.90;;;6.55;;
51828;SDS011;37881;48.024;8.774;2024-01-27T06:32:42;57.40;;;6.43;;
51828;SDS011;37881;48.024;8.774;2024-01-27T06:35:09;71.90;;;6.63;;
51828;SDS011;37881;48.024;8.774;2024-01-27T06:37:36;29.80;;;5.55;;
51828;SDS011;37881;48.024;8.774;2024-01-27T06:40:04;56.72;;;5.50;;
51828;SDS011;37881;48.024;8.774;2024-01-27T06:42:31;37.78;;;5.80;;
51828;SDS011;37881;48.024;8.774;2024-01-27T06:44:58;56.17;;;5.57;;
51828;SDS011;37881;48.024;8.774;2024-01-27T06:47:25;38.88;;;6.57;;
51828;SDS011;37881;48.024;8.774;2024-01-27T06:49:52;71.22;;;6.80;;
51828;SDS011;37881;48.024;8.774;2024-01-27T06:52:19;87.53;;;6.88;;
51828;SDS011;37881;48.024;8.774;2024-01-27T06:54:46;111.95;;;7.13;;
51828;SDS011;37881;48.024;8.774;2024-01-27T06:57:19;67.03;;;7.03;;
51828;SDS011;37881;48.024;8.774;2024-01-27T06:59:47;59.92;;;6.55;;
51828;SDS011;37881;48.024;8.774;2024-01-27T07:02:25;47.38;;;6.28;;
51828;SDS011;37881;48.024;8.774;2024-01-27T07:04:55;63.33;;;6.32;;
51828;SDS011;37881;48.024;8.774;2024-01-27T07:07:26;113.72;;;8.43;;
51828;SDS011;37881;48.024;8.774;2024-01-27T07:09:56;45.70;;;6.43;;
51828;SDS011;37881;48.024;8.774;2024-01-27T07:12:24;31.75;;;5.68;;
51828;SDS011;37881;48.024;8.774;2024-01-27T07:14:51;47.13;;;7.28;;
51828;SDS011;37881;48.024;8.774;2024-01-27T07:17:23;56.00;;;7.07;;
51828;SDS011;37881;48.024;8.774;2024-01-27T07:19:49;37.50;;;6.47;;
51828;SDS011;37881;48.024;8.774;2024-01-27T07:22:16;193.83;;;11.17;;
51828;SDS011;37881;48.024;8.774;2024-01-27T07:24:43;44.55;;;7.03;;
51828;SDS011;37881;48.024;8.774;2024-01-27T07:27:11;55.65;;;9.20;;
51828;SDS011;37881;48.024;8.774;2024-01-27T07:29:39;31.35;;;6.90;;
51828;SDS011;37881;48.024;8.774;2024-01-27T07:32:06;37.47;;;7.93;;
51828;SDS011;37881;48.024;8.774;2024-01-27T07:34:35;57.87;;;7.20;;
51828;SDS011;37881;48.024;8.774;2024-01-27T07:37:02;147.48;;;9.80;;
51828;SDS011;37881;48.024;8.774;2024-01-27T07:39:28;84.55;;;12.82;;
51828;SDS011;37881;48.024;8.774;2024-01-27T07:41:55;69.15;;;8.10;;
51828;SDS011;37881;48.024;8.774;2024-01-27T07:44:22;50.10;;;7.22;;
51828;SDS011;37881;48.024;8.774;2024-01-27T07:46:49;66.27;;;7.90;;
51828;SDS011;37881;48.024;8.774;2024-01-27T07:49:16;35.35;;;8.43;;
51828;SDS011;37881;48.024;8.774;2024-01-27T07:51:42;75.15;;;8.65;;
51828;SDS011;37881;48.024;8.774;2024-01-27T07:54:09;47.10;;;7.75;;
51828;SDS011;37881;48.024;8.774;2024-01-27T07:56:37;37.83;;;8.00;;
51828;SDS011;37881;48.024;8.774;2024-01-27T07:59:04;53.87;;;8.07;;
51828;SDS011;37881;48.024;8.774;2024-01-27T08:01:31;52.80;;;9.48;;
51828;SDS011;37881;48.024;8.774;2024-01-27T08:03:57;225.60;;;13.75;;
51828;SDS011;37881;48.024;8.774;2024-01-27T08:06:28;118.18;;;11.27;;
51828;SDS011;37881;48.024;8.774;2024-01-27T08:08:58;60.90;;;9.18;;
51828;SDS011;37881;48.024;8.774;2024-01-27T08:11:25;29.27;;;7.57;;
51828;SDS011;37881;48.024;8.774;2024-01-27T08:13:52;52.00;;;8.93;;
51828;SDS011;37881;48.024;8.774;2024-01-27T08:16:20;31.15;;;8.27;;
51828;SDS011;37881;48.024;8.774;2024-01-27T08:18:47;165.77;;;10.50;;
51828;SDS011;37881;48.024;8.774;2024-01-27T08:21:14;174.48;;;21.15;;
51828;SDS011;37881;48.024;8.774;2024-01-27T08:23:41;72.73;;;9.40;;
51828;SDS011;37881;48.024;8.774;2024-01-27T08:26:08;71.05;;;9.27;;
51828;SDS011;37881;48.024;8.774;2024-01-27T08:28:35;48.35;;;8.65;;
51828;SDS011;37881;48.024;8.774;2024-01-27T08:31:01;34.92;;;7.78;;
51828;SDS011;37881;48.024;8.774;2024-01-27T08:33:28;45.88;;;8.95;;
51828;SDS011;37881;48.024;8.774;2024-01-27T08:35:55;36.27;;;7.77;;
51828;SDS011;37881;48.024;8.774;2024-01-27T08:38:22;34.13;;;7.53;;
51828;SDS011;37881;48.024;8.774;2024-01-27T08:40:49;42.22;;;8.80;;
51828;SDS011;37881;48.024;8.774;2024-01-27T08:43:16;57.47;;;10.10;;
51828;SDS011;37881;48.024;8.774;2024-01-27T08:45:42;86.32;;;10.45;;
51828;SDS011;37881;48.024;8.774;2024-01-27T08:48:09;81.03;;;14.10;;
51828;SDS011;37881;48.024;8.774;2024-01-27T08:50:38;82.45;;;8.95;;
51828;SDS011;37881;48.024;8.774;2024-01-27T08:53:05;67.45;;;7.72;;
51828;SDS011;37881;48.024;8.774;2024-01-27T08:55:32;40.63;;;7.50;;
51828;SDS011;37881;48.024;8.774;2024-01-27T08:57:59;75.32;;;8.38;;
51828;SDS011;37881;48.024;8.774;2024-01-27T09:00:26;37.53;;;8.10;;
51828;SDS011;37881;48.024;8.774;2024-01-27T09:02:53;40.72;;;9.18;;
51828;SDS011;37881;48.024;8.774;2024-01-27T09:05:20;36.45;;;8.30;;
51828;SDS011;37881;48.024;8.774;2024-01-27T09:07:46;70.68;;;9.40;;
51828;SDS011;37881;48.024;8.774;2024-01-27T09:10:13;34.53;;;7.78;;
51828;SDS011;37881;48.024;8.774;2024-01-27T09:12:42;24.60;;;7.13;;
51828;SDS011;37881;48.024;8.774;2024-01-27T09:15:09;39.60;;;7.38;;
51828;SDS011;37881;48.024;8.774;2024-01-27T09:17:36;29.25;;;7.60;;
51828;SDS011;37881;48.024;8.774;2024-01-27T09:20:03;22.02;;;6.75;;
51828;SDS011;37881;48.024;8.774;2024-01-27T09:22:31;28.35;;;7.55;;
51828;SDS011;37881;48.024;8.774;2024-01-27T09:24:57;41.53;;;7.03;;
51828;SDS011;37881;48.024;8.774;2024-01-27T09:27:24;66.50;;;7.65;;
51828;SDS011;37881;48.024;8.774;2024-01-27T09:29:51;55.83;;;8.18;;
51828;SDS011;37881;48.024;8.774;2024-01-27T09:32:18;80.80;;;9.65;;
51828;SDS011;37881;48.024;8.774;2024-01-27T09:34:45;47.33;;;9.10;;
51828;SDS011;37881;48.024;8.774;2024-01-27T09:37:12;35.73;;;8.90;;
51828;SDS011;37881;48.024;8.774;2024-01-27T09:39:39;57.67;;;10.75;;
51828;SDS011;37881;48.024;8.774;2024-01-27T09:42:06;55.33;;;12.35;;
51828;SDS011;37881;48.024;8.774;2024-01-27T09:44:34;41.63;;;8.55;;
51828;SDS011;37881;48.024;8.774;2024-01-27T09:47:02;22.08;;;9.05;;
51828;SDS011;37881;48.024;8.774;2024-01-27T09:49:29;20.37;;;7.50;;
51828;SDS011;37881;48.024;8.774;2024-01-27T09:51:58;19.15;;;7.00;;
51828;SDS011;37881;48.024;8.774;2024-01-27T09:54:25;35.78;;;7.28;;
51828;SDS011;37881;48.024;8.774;2024-01-27T09:56:53;15.68;;;7.72;;
51828;SDS011;37881;48.024;8.774;2024-01-27T09:59:22;16.60;;;7.75;;
51828;SDS011;37881;48.024;8.774;2024-01-27T10:01:49;19.13;;;7.03;;
51828;SDS011;37881;48.024;8.774;2024-01-27T10:04:19;14.32;;;7.05;;
51828;SDS011;37881;48.024;8.774;2024-01-27T10:06:47;15.25;;;7.00;;
51828;SDS011;37881;48.024;8.774;2024-01-27T10:09:17;14.75;;;8.63;;
51828;SDS011;37881;48.024;8.774;2024-01-27T10:11:47;19.67;;;11.60;;
51828;SDS011;37881;48.024;8.774;2024-01-27T10:14:14;20.23;;;8.40;;
51828;SDS011;37881;48.024;8.774;2024-01-27T10:16:45;15.35;;;8.20;;
51828;SDS011;37881;48.024;8.774;2024-01-27T10:19:14;16.30;;;9.20;;
51828;SDS011;37881;48.024;8.774;2024-01-27T10:21:46;13.27;;;7.65;;
51828;SDS011;37881;48.024;8.774;2024-01-27T10:24:13;11.68;;;7.50;;
51828;SDS011;37881;48.024;8.774;2024-01-27T10:26:41;15.23;;;8.40;;
51828;SDS011;37881;48.024;8.774;2024-01-27T10:29:08;14.30;;;8.50;;
51828;SDS011;37881;48.024;8.774;2024-01-27T10:31:36;13.30;;;8.70;;
51828;SDS011;37881;48.024;8.774;2024-01-27T10:34:03;13.95;;;9.00;;
51828;SDS011;37881;48.024;8.774;2024-01-27T10:36:42;15.40;;;9.48;;
51828;SDS011;37881;48.024;8.774;2024-01-27T10:39:18;14.00;;;8.80;;
51828;SDS011;37881;48.024;8.774;2024-01-27T10:41:49;14.25;;;8.98;;
51828;SDS011;37881;48.024;8.774;2024-01-27T10:44:17;16.45;;;9.30;;
51828;SDS011;37881;48.024;8.774;2024-01-27T10:46:48;17.17;;;10.25;;
51828;SDS011;37881;48.024;8.774;2024-01-27T10:49:17;25.00;;;13.38;;
51828;SDS011;37881;48.024;8.774;2024-01-27T10:51:54;15.70;;;10.47;;
51828;SDS011;37881;48.024;8.774;2024-01-27T10:54:26;17.58;;;11.23;;
51828;SDS011;37881;48.024;8.774;2024-01-27T10:56:56;17.35;;;11.00;;
51828;SDS011;37881;48.024;8.774;2024-01-27T10:59:28;15.20;;;9.85;;
51828;SDS011;37881;48.024;8.774;2024-01-27T11:01:58;12.45;;;8.50;;
51828;SDS011;37881;48.024;8.774;2024-01-27T11:04:25;10.83;;;7.13;;
51828;SDS011;37881;48.024;8.774;2024-01-27T11:06:54;10.60;;;7.22;;
51828;SDS011;37881;48.024;8.774;2024-01-27T11:09:23;8.93;;;6.28;;
51828;SDS011;37881;48.024;8.774;2024-01-27T11:11:51;9.57;;;6.50;;
51828;SDS011;37881;48.024;8.774;2024-01-27T11:14:18;10.20;;;7.10;;
51828;SDS011;37881;48.024;8.774;2024-01-27T11:16:45;9.33;;;6.47;;
51828;SDS011;37881;48.024;8.774;2024-01-27T11:19:16;8.55;;;6.40;;
51828;SDS011;37881;48.024;8.774;2024-01-27T11:21:43;9.48;;;6.03;;
51828;SDS011;37881;48.024;8.774;2024-01-27T11:24:14;9.70;;;6.10;;
51828;SDS011;37881;48.024;8.774;2024-01-27T11:26:42;10.07;;;6.70;;
51828;SDS011;37881;48.024;8.774;2024-01-27T11:29:09;8.53;;;5.53;;
51828;SDS011;37881;48.024;8.774;2024-01-27T11:31:45;10.07;;;6.22;;
51828;SDS011;37881;48.024;8.774;2024-01-27T11:34:12;9.55;;;6.32;;
51828;SDS011;37881;48.024;8.774;2024-01-27T11:36:43;8.55;;;4.90;;
51828;SDS011;37881;48.024;8.774;2024-01-27T11:39:23;8.95;;;4.50;;
51828;SDS011;37881;48.024;8.774;2024-01-27T11:44:53;7.95;;;4.63;;
51828;SDS011;37881;48.024;8.774;2024-01-27T11:47:21;6.38;;;3.47;;
51828;SDS011;37881;48.024;8.774;2024-01-27T11:49:52;8.48;;;3.85;;
51828;SDS011;37881;48.024;8.774;2024-01-27T11:52:21;10.25;;;2.97;;
51828;SDS011;37881;48.024;8.774;2024-01-27T11:54:57;6.30;;;2.90;;
51828;SDS011;37881;48.024;8.774;2024-01-27T11:57:25;6.80;;;3.00;;
51828;SDS011;37881;48.024;8.774;2024-01-27T11:59:53;6.28;;;3.30;;
51828;SDS011;37881;48.024;8.774;2024-01-27T12:02:21;5.90;;;2.40;;
51828;SDS011;37881;48.024;8.774;2024-01-27T12:04:48;5.80;;;2.72;;
51828;SDS011;37881;48.024;8.774;2024-01-27T12:07:16;8.83;;;2.87;;
51828;SDS011;37881;48.024;8.774;2024-01-27T12:09:46;7.38;;;3.40;;
51828;SDS011;37881;48.024;8.774;2024-01-27T12:12:15;8.02;;;3.60;;
51828;SDS011;37881;48.024;8.774;2024-01-27T12:14:46;6.93;;;3.80;;
51828;SDS011;37881;48.024;8.774;2024-01-27T12:17:14;8.77;;;4.00;;
51828;SDS011;37881;48.024;8.774;2024-01-27T12:19:45;9.37;;;4.33;;
51828;SDS011;37881;48.024;8.774;2024-01-27T12:22:26;8.80;;;3.20;;
51828;SDS011;37881;48.024;8.774;2024-01-27T12:24:54;4.72;;;2.20;;
51828;SDS011;37881;48.024;8.774;2024-01-27T12:27:22;6.20;;;2.40;;
51828;SDS011;37881;48.024;8.774;2024-01-27T12:29:49;5.55;;;2.40;;
51828;SDS011;37881;48.024;8.774;2024-01-27T12:32:17;6.20;;;2.70;;
51828;SDS011;37881;48.024;8.774;2024-01-27T12:34:44;10.02;;;3.28;;
51828;SDS011;37881;48.024;8.774;2024-01-27T12:37:17;6.07;;;2.88;;
51828;SDS011;37881;48.024;8.774;2024-01-27T12:39:44;7.70;;;2.90;;
51828;SDS011;37881;48.024;8.774;2024-01-27T12:42:11;5.25;;;2.63;;
51828;SDS011;37881;48.024;8.774;2024-01-27T12:44:38;6.43;;;2.20;;
51828;SDS011;37881;48.024;8.774;2024-01-27T12:47:06;5.28;;;2.33;;
51828;SDS011;37881;48.024;8.774;2024-01-27T12:49:33;9.45;;;2.53;;
51828;SDS011;37881;48.024;8.774;2024-01-27T12:52:01;5.10;;;2.20;;
51828;SDS011;37881;48.024;8.774;2024-01-27T12:54:28;6.20;;;2.58;;
51828;SDS011;37881;48.024;8.774;2024-01-27T12:56:55;7.93;;;2.43;;
51828;SDS011;37881;48.024;8.774;2024-01-27T12:59:23;7.50;;;2.70;;
51828;SDS011;37881;48.024;8.774;2024-01-27T13:01:49;5.18;;;2.38;;
51828;SDS011;37881;48.024;8.774;2024-01-27T13:04:16;6.80;;;2.63;;
51828;SDS011;37881;48.024;8.774;2024-01-27T13:06:43;4.95;;;2.53;;
51828;SDS011;37881;48.024;8.774;2024-01-27T13:09:10;6.70;;;2.40;;
51828;SDS011;37881;48.024;8.774;2024-01-27T13:11:38;5.93;;;2.58;;
51828;SDS011;37881;48.024;8.774;2024-01-27T13:14:05;6.28;;;3.13;;
51828;SDS011;37881;48.024;8.774;2024-01-27T13:16:34;5.75;;;2.60;;
51828;SDS011;37881;48.024;8.774;2024-01-27T13:19:01;6.90;;;3.28;;
51828;SDS011;37881;48.024;8.774;2024-01-27T13:21:28;8.00;;;2.90;;
51828;SDS011;37881;48.024;8.774;2024-01-27T13:23:55;5.18;;;2.38;;
51828;SDS011;37881;48.024;8.774;2024-01-27T13:26:23;5.28;;;2.05;;
51828;SDS011;37881;48.024;8.774;2024-01-27T13:28:53;4.28;;;1.92;;
51828;SDS011;37881;48.024;8.774;2024-01-27T13:31:20;4.18;;;2.30;;
51828;SDS011;37881;48.024;8.774;2024-01-27T13:33:47;4.17;;;2.10;;
51828;SDS011;37881;48.024;8.774;2024-01-27T13:36:15;5.43;;;1.80;;
51828;SDS011;37881;48.024;8.774;2024-01-27T13:38:43;5.10;;;2.08;;
51828;SDS011;37881;48.024;8.774;2024-01-27T13:41:10;3.50;;;1.52;;
51828;SDS011;37881;48.024;8.774;2024-01-27T13:43:37;4.93;;;2.05;;
51828;SDS011;37881;48.024;8.774;2024-01-27T13:46:04;6.03;;;2.40;;
51828;SDS011;37881;48.024;8.774;2024-01-27T13:48:31;5.47;;;1.98;;
51828;SDS011;37881;48.024;8.774;2024-01-27T13:50:58;5.13;;;2.20;;
51828;SDS011;37881;48.024;8.774;2024-01-27T13:53:25;4.72;;;2.00;;
51828;SDS011;37881;48.024;8.774;2024-01-27T13:56:08;4.72;;;1.80;;
51828;SDS011;37881;48.024;8.774;2024-01-27T13:58:35;4.63;;;1.70;;
51828;SDS011;37881;48.024;8.774;2024-01-27T14:01:02;4.40;;;2.03;;
51828;SDS011;37881;48.024;8.774;2024-01-27T14:03:30;4.35;;;2.08;;
51828;SDS011;37881;48.024;8.774;2024-01-27T14:05:57;6.97;;;2.25;;
51828;SDS011;37881;48.024;8.774;2024-01-27T14:08:24;5.90;;;2.50;;
51828;SDS011;37881;48.024;8.774;2024-01-27T14:10:51;5.17;;;2.30;;
51828;SDS011;37881;48.024;8.774;2024-01-27T14:13:19;4.43;;;1.70;;
51828;SDS011;37881;48.024;8.774;2024-01-27T14:15:46;4.38;;;2.22;;
51828;SDS011;37881;48.024;8.774;2024-01-27T14:18:12;6.63;;;2.17;;
51828;SDS011;37881;48.024;8.774;2024-01-27T14:20:48;5.32;;;2.38;;
51828;SDS011;37881;48.024;8.774;2024-01-27T14:23:15;4.30;;;1.83;;
51828;SDS011;37881;48.024;8.774;2024-01-27T14:25:42;5.10;;;1.92;;
51828;SDS011;37881;48.024;8.774;2024-01-27T14:28:13;5.40;;;2.30;;
51828;SDS011;37881;48.024;8.774;2024-01-27T14:30:40;4.75;;;2.08;;
51828;SDS011;37881;48.024;8.774;2024-01-27T14:33:08;4.25;;;2.10;;
51828;SDS011;37881;48.024;8.774;2024-01-27T14:35:35;5.67;;;1.97;;
51828;SDS011;37881;48.024;8.774;2024-01-27T14:38:02;4.75;;;2.00;;
51828;SDS011;37881;48.024;8.774;2024-01-27T14:40:38;5.72;;;2.40;;
51828;SDS011;37881;48.024;8.774;2024-01-27T14:43:05;3.47;;;1.77;;